sensor_id;sensor_type;location;lat;lon;timestamp;temperature;humidity
5802;DHT22;2927;49.366;8.530;2024-02-26T00:01:48;9.30;1.00
5802;DHT22;2927;49.366;8.530;2024-02-26T00:04:14;9.30;1.00
5802;DHT22;2927;49.366;8.530;2024-02-26T00:06:39;9.30;1.00
5802;DHT22;2927;49.366;8.530;2024-02-26T00:09:09;9.30;1.00
5802;DHT22;2927;49.366;8.530;2024-02-26T00:11:36;9.30;1.00
5802;DHT22;2927;49.366;8.530;2024-02-26T00:14:02;9.20;1.00
5802;DHT22;2927;49.366;8.530;2024-02-26T00:16:28;9.20;1.00
5802;DHT22;2927;49.366;8.530;2024-02-26T00:18:53;9.10;1.00
5802;DHT22;2927;49.366;8.530;2024-02-26T00:21:19;9.10;1.00
5802;DHT22;2927;49.366;8.530;2024-02-26T00:23:44;9.10;1.00
5802;DHT22;2927;49.366;8.530;2024-02-26T00:26:10;9.10;1.00
5802;DHT22;2927;49.366;8.530;2024-02-26T00:28:36;9.00;1.00
5802;DHT22;2927;49.366;8.530;2024-02-26T00:31:02;9.00;1.00
5802;DHT22;2927;49.366;8.530;2024-02-26T00:33:27;9.00;1.00
5802;DHT22;2927;49.366;8.530;2024-02-26T00:35:53;9.00;1.00
5802;DHT22;2927;49.366;8.530;2024-02-26T00:38:19;9.00;1.00
5802;DHT22;2927;49.366;8.530;2024-02-26T00:40:44;9.00;1.00
5802;DHT22;2927;49.366;8.530;2024-02-26T00:43:10;9.00;1.00
5802;DHT22;2927;49.366;8.530;2024-02-26T00:45:36;9.00;1.00
5802;DHT22;2927;49.366;8.530;2024-02-26T00:48:01;9.00;1.00
5802;DHT22;2927;49.366;8.530;2024-02-26T00:50:32;8.90;1.00
5802;DHT22;2927;49.366;8.530;2024-02-26T00:52:59;8.90;1.00
5802;DHT22;2927;49.366;8.530;2024-02-26T00:55:24;8.90;1.00
5802;DHT22;2927;49.366;8.530;2024-02-26T00:57:50;8.90;1.00
5802;DHT22;2927;49.366;8.530;2024-02-26T01:00:15;8.90;1.00
5802;DHT22;2927;49.366;8.530;2024-02-26T01:02:41;8.80;1.00
5802;DHT22;2927;49.366;8.530;2024-02-26T01:05:07;8.80;1.00
5802;DHT22;2927;49.366;8.530;2024-02-26T01:07:34;8.80;1.00
5802;DHT22;2927;49.366;8.530;2024-02-26T01:10:02;8.80;1.00
5802;DHT22;2927;49.366;8.530;2024-02-26T01:12:28;8.80;5.50
5802;DHT22;2927;49.366;8.530;2024-02-26T01:14:54;8.70;1.00
5802;DHT22;2927;49.366;8.530;2024-02-26T01:17:19;8.70;1.00
5802;DHT22;2927;49.366;8.530;2024-02-26T01:19:45;8.70;1.00
5802;DHT22;2927;49.366;8.530;2024-02-26T01:22:10;8.60;1.00
5802;DHT22;2927;49.366;8.530;2024-02-26T01:24:42;8.60;1.00
5802;DHT22;2927;49.366;8.530;2024-02-26T01:27:07;8.60;1.00
5802;DHT22;2927;49.366;8.530;2024-02-26T01:29:34;8.50;1.00
5802;DHT22;2927;49.366;8.530;2024-02-26T01:31:59;8.50;1.00
5802;DHT22;2927;49.366;8.530;2024-02-26T01:34:25;8.50;1.00
5802;DHT22;2927;49.366;8.530;2024-02-26T01:36:51;8.40;1.10
5802;DHT22;2927;49.366;8.530;2024-02-26T01:39:16;8.40;1.80
5802;DHT22;2927;49.366;8.530;2024-02-26T01:41:42;8.40;4.40
5802;DHT22;2927;49.366;8.530;2024-02-26T01:44:07;8.30;5.10
5802;DHT22;2927;49.366;8.530;2024-02-26T01:46:34;8.30;10.70
5802;DHT22;2927;49.366;8.530;2024-02-26T01:49:02;8.30;17.90
5802;DHT22;2927;49.366;8.530;2024-02-26T01:51:28;8.20;24.60
5802;DHT22;2927;49.366;8.530;2024-02-26T01:53:55;8.20;40.80
5802;DHT22;2927;49.366;8.530;2024-02-26T01:56:21;8.10;79.10
5802;DHT22;2927;49.366;8.530;2024-02-26T01:58:48;8.00;99.90
5802;DHT22;2927;49.366;8.530;2024-02-26T02:01:16;7.90;99.90
5802;DHT22;2927;49.366;8.530;2024-02-26T02:03:44;7.80;99.90
5802;DHT22;2927;49.366;8.530;2024-02-26T02:06:11;7.70;99.90
5802;DHT22;2927;49.366;8.530;2024-02-26T02:08:38;7.60;99.90
5802;DHT22;2927;49.366;8.530;2024-02-26T02:11:04;7.60;99.90
5802;DHT22;2927;49.366;8.530;2024-02-26T02:13:29;7.50;99.90
5802;DHT22;2927;49.366;8.530;2024-02-26T02:15:55;7.50;99.90
5802;DHT22;2927;49.366;8.530;2024-02-26T02:18:21;7.40;99.90
5802;DHT22;2927;49.366;8.530;2024-02-26T02:20:46;7.50;1.00
5802;DHT22;2927;49.366;8.530;2024-02-26T02:23:12;7.40;1.00
5802;DHT22;2927;49.366;8.530;2024-02-26T02:25:37;7.30;1.00
5802;DHT22;2927;49.366;8.530;2024-02-26T02:28:03;7.30;1.00
5802;DHT22;2927;49.366;8.530;2024-02-26T02:30:31;7.40;1.00
5802;DHT22;2927;49.366;8.530;2024-02-26T02:32:57;7.40;1.00
5802;DHT22;2927;49.366;8.530;2024-02-26T02:35:24;7.40;1.00
5802;DHT22;2927;49.366;8.530;2024-02-26T02:37:52;7.30;1.00
5802;DHT22;2927;49.366;8.530;2024-02-26T02:40:17;7.30;1.00
5802;DHT22;2927;49.366;8.530;2024-02-26T02:42:43;7.30;1.00
5802;DHT22;2927;49.366;8.530;2024-02-26T02:45:08;7.30;1.00
5802;DHT22;2927;49.366;8.530;2024-02-26T02:47:37;7.30;1.00
5802;DHT22;2927;49.366;8.530;2024-02-26T02:50:03;7.20;1.00
5802;DHT22;2927;49.366;8.530;2024-02-26T02:52:29;7.30;1.00
5802;DHT22;2927;49.366;8.530;2024-02-26T02:54:54;7.30;1.00
5802;DHT22;2927;49.366;8.530;2024-02-26T02:57:20;7.30;1.00
5802;DHT22;2927;49.366;8.530;2024-02-26T02:59:46;7.30;1.00
5802;DHT22;2927;49.366;8.530;2024-02-26T03:02:12;7.30;1.00
5802;DHT22;2927;49.366;8.530;2024-02-26T03:04:37;7.30;1.00
5802;DHT22;2927;49.366;8.530;2024-02-26T03:07:03;7.30;1.00
5802;DHT22;2927;49.366;8.530;2024-02-26T03:09:28;7.40;1.00
5802;DHT22;2927;49.366;8.530;2024-02-26T03:11:54;7.40;46.60
5802;DHT22;2927;49.366;8.530;2024-02-26T03:14:19;7.40;10.80
5802;DHT22;2927;49.366;8.530;2024-02-26T03:16:45;7.50;20.10
5802;DHT22;2927;49.366;8.530;2024-02-26T03:19:10;7.50;1.00
5802;DHT22;2927;49.366;8.530;2024-02-26T03:21:36;7.60;1.00
5802;DHT22;2927;49.366;8.530;2024-02-26T03:24:01;7.60;1.00
5802;DHT22;2927;49.366;8.530;2024-02-26T03:26:27;7.50;21.20
5802;DHT22;2927;49.366;8.530;2024-02-26T03:28:53;7.50;94.90
5802;DHT22;2927;49.366;8.530;2024-02-26T03:31:18;7.50;99.90
5802;DHT22;2927;49.366;8.530;2024-02-26T03:33:44;7.40;1.00
5802;DHT22;2927;49.366;8.530;2024-02-26T03:36:09;7.40;1.00
5802;DHT22;2927;49.366;8.530;2024-02-26T03:38:35;7.30;1.00
5802;DHT22;2927;49.366;8.530;2024-02-26T03:41:00;7.30;99.90
5802;DHT22;2927;49.366;8.530;2024-02-26T03:43:26;7.30;99.90
5802;DHT22;2927;49.366;8.530;2024-02-26T03:45:51;7.30;1.00
5802;DHT22;2927;49.366;8.530;2024-02-26T03:48:18;7.20;1.00
5802;DHT22;2927;49.366;8.530;2024-02-26T03:50:43;7.20;99.90
5802;DHT22;2927;49.366;8.530;2024-02-26T03:53:09;7.20;99.90
5802;DHT22;2927;49.366;8.530;2024-02-26T03:55:38;7.20;1.00
5802;DHT22;2927;49.366;8.530;2024-02-26T03:58:03;7.10;1.00
5802;DHT22;2927;49.366;8.530;2024-02-26T04:00:29;7.10;99.90
5802;DHT22;2927;49.366;8.530;2024-02-26T04:02:55;7.10;1.00
5802;DHT22;2927;49.366;8.530;2024-02-26T04:05:21;7.10;1.00
5802;DHT22;2927;49.366;8.530;2024-02-26T04:07:46;7.00;99.90
5802;DHT22;2927;49.366;8.530;2024-02-26T04:10:12;7.00;1.00
5802;DHT22;2927;49.366;8.530;2024-02-26T04:12:39;7.00;1.00
5802;DHT22;2927;49.366;8.530;2024-02-26T04:15:07;7.00;99.90
5802;DHT22;2927;49.366;8.530;2024-02-26T04:17:33;7.00;99.90
5802;DHT22;2927;49.366;8.530;2024-02-26T04:19:58;7.00;1.00
5802;DHT22;2927;49.366;8.530;2024-02-26T04:22:24;6.90;58.50
5802;DHT22;2927;49.366;8.530;2024-02-26T04:24:49;6.90;1.00
5802;DHT22;2927;49.366;8.530;2024-02-26T04:27:15;6.90;99.90
5802;DHT22;2927;49.366;8.530;2024-02-26T04:29:40;6.90;1.00
5802;DHT22;2927;49.366;8.530;2024-02-26T04:32:06;6.90;1.00
5802;DHT22;2927;49.366;8.530;2024-02-26T04:34:32;6.80;25.60
5802;DHT22;2927;49.366;8.530;2024-02-26T04:36:57;6.90;1.00
5802;DHT22;2927;49.366;8.530;2024-02-26T04:39:23;6.80;1.00
5802;DHT22;2927;49.366;8.530;2024-02-26T04:41:48;6.90;1.00
5802;DHT22;2927;49.366;8.530;2024-02-26T04:44:14;6.90;1.00
5802;DHT22;2927;49.366;8.530;2024-02-26T04:46:39;6.90;1.00
5802;DHT22;2927;49.366;8.530;2024-02-26T04:49:05;6.90;1.00
5802;DHT22;2927;49.366;8.530;2024-02-26T04:51:31;6.90;99.90
5802;DHT22;2927;49.366;8.530;2024-02-26T04:53:56;6.90;1.00
5802;DHT22;2927;49.366;8.530;2024-02-26T04:56:22;6.90;99.90
5802;DHT22;2927;49.366;8.530;2024-02-26T04:58:47;7.00;99.90
5802;DHT22;2927;49.366;8.530;2024-02-26T05:01:13;6.90;99.90
5802;DHT22;2927;49.366;8.530;2024-02-26T05:03:41;6.90;99.90
5802;DHT22;2927;49.366;8.530;2024-02-26T05:06:06;7.00;1.00
5802;DHT22;2927;49.366;8.530;2024-02-26T05:08:32;6.90;99.90
5802;DHT22;2927;49.366;8.530;2024-02-26T05:10:59;6.90;1.00
5802;DHT22;2927;49.366;8.530;2024-02-26T05:13:25;7.00;1.00
5802;DHT22;2927;49.366;8.530;2024-02-26T05:15:51;7.00;1.00
5802;DHT22;2927;49.366;8.530;2024-02-26T05:18:17;6.90;1.00
5802;DHT22;2927;49.366;8.530;2024-02-26T05:20:43;6.90;1.00
5802;DHT22;2927;49.366;8.530;2024-02-26T05:23:09;6.90;1.00
5802;DHT22;2927;49.366;8.530;2024-02-26T05:25:34;6.90;11.30
5802;DHT22;2927;49.366;8.530;2024-02-26T05:28:00;7.00;78.80
5802;DHT22;2927;49.366;8.530;2024-02-26T05:30:26;7.00;74.70
5802;DHT22;2927;49.366;8.530;2024-02-26T05:32:54;7.00;1.00
5802;DHT22;2927;49.366;8.530;2024-02-26T05:35:20;7.00;99.90
5802;DHT22;2927;49.366;8.530;2024-02-26T05:37:45;7.00;81.30
5802;DHT22;2927;49.366;8.530;2024-02-26T05:40:11;7.00;99.90
5802;DHT22;2927;49.366;8.530;2024-02-26T05:42:37;7.00;1.00
5802;DHT22;2927;49.366;8.530;2024-02-26T05:45:03;7.00;1.00
5802;DHT22;2927;49.366;8.530;2024-02-26T05:47:35;6.90;1.00
5802;DHT22;2927;49.366;8.530;2024-02-26T05:50:01;7.00;1.00
5802;DHT22;2927;49.366;8.530;2024-02-26T05:52:27;6.90;1.00
5802;DHT22;2927;49.366;8.530;2024-02-26T05:54:57;6.90;73.20
5802;DHT22;2927;49.366;8.530;2024-02-26T05:57:22;6.90;99.90
5802;DHT22;2927;49.366;8.530;2024-02-26T05:59:48;7.00;99.90
5802;DHT22;2927;49.366;8.530;2024-02-26T06:02:13;6.90;99.90
5802;DHT22;2927;49.366;8.530;2024-02-26T06:04:39;6.90;1.00
5802;DHT22;2927;49.366;8.530;2024-02-26T06:07:04;6.90;1.00
5802;DHT22;2927;49.366;8.530;2024-02-26T06:09:30;6.90;1.00
5802;DHT22;2927;49.366;8.530;2024-02-26T06:11:56;6.90;99.90
5802;DHT22;2927;49.366;8.530;2024-02-26T06:14:21;6.80;1.00
5802;DHT22;2927;49.366;8.530;2024-02-26T06:16:47;6.80;1.00
5802;DHT22;2927;49.366;8.530;2024-02-26T06:19:13;6.60;1.00
5802;DHT22;2927;49.366;8.530;2024-02-26T06:21:38;6.70;1.00
5802;DHT22;2927;49.366;8.530;2024-02-26T06:24:04;6.70;1.00
5802;DHT22;2927;49.366;8.530;2024-02-26T06:26:30;6.70;1.00
5802;DHT22;2927;49.366;8.530;2024-02-26T06:28:56;6.70;1.00
5802;DHT22;2927;49.366;8.530;2024-02-26T06:31:22;6.60;1.00
5802;DHT22;2927;49.366;8.530;2024-02-26T06:33:49;6.60;1.00
5802;DHT22;2927;49.366;8.530;2024-02-26T06:36:15;6.60;1.00
5802;DHT22;2927;49.366;8.530;2024-02-26T06:38:41;6.60;1.00
5802;DHT22;2927;49.366;8.530;2024-02-26T06:41:06;6.60;1.00
5802;DHT22;2927;49.366;8.530;2024-02-26T06:43:32;6.60;1.00
5802;DHT22;2927;49.366;8.530;2024-02-26T06:45:58;6.50;1.00
5802;DHT22;2927;49.366;8.530;2024-02-26T06:48:24;6.50;1.00
5802;DHT22;2927;49.366;8.530;2024-02-26T06:50:50;6.50;4.70
5802;DHT22;2927;49.366;8.530;2024-02-26T06:53:15;6.50;11.20
5802;DHT22;2927;49.366;8.530;2024-02-26T06:55:43;6.50;10.40
5802;DHT22;2927;49.366;8.530;2024-02-26T06:58:09;6.60;21.90
5802;DHT22;2927;49.366;8.530;2024-02-26T07:00:35;6.60;15.90
5802;DHT22;2927;49.366;8.530;2024-02-26T07:03:00;6.60;1.00
5802;DHT22;2927;49.366;8.530;2024-02-26T07:05:27;6.60;3.40
5802;DHT22;2927;49.366;8.530;2024-02-26T07:07:52;6.70;1.00
5802;DHT22;2927;49.366;8.530;2024-02-26T07:10:18;6.70;1.00
5802;DHT22;2927;49.366;8.530;2024-02-26T07:12:44;6.70;1.00
5802;DHT22;2927;49.366;8.530;2024-02-26T07:15:10;6.70;6.40
5802;DHT22;2927;49.366;8.530;2024-02-26T07:17:36;6.70;14.90
5802;DHT22;2927;49.366;8.530;2024-02-26T07:20:01;6.80;21.20
5802;DHT22;2927;49.366;8.530;2024-02-26T07:22:30;6.80;7.30
5802;DHT22;2927;49.366;8.530;2024-02-26T07:24:55;6.80;1.00
5802;DHT22;2927;49.366;8.530;2024-02-26T07:27:21;6.90;1.00
5802;DHT22;2927;49.366;8.530;2024-02-26T07:29:47;6.90;1.00
5802;DHT22;2927;49.366;8.530;2024-02-26T07:32:12;6.90;1.00
5802;DHT22;2927;49.366;8.530;2024-02-26T07:34:38;7.00;1.00
5802;DHT22;2927;49.366;8.530;2024-02-26T07:37:07;7.00;1.00
5802;DHT22;2927;49.366;8.530;2024-02-26T07:39:33;7.00;1.00
5802;DHT22;2927;49.366;8.530;2024-02-26T07:41:58;7.00;1.00
5802;DHT22;2927;49.366;8.530;2024-02-26T07:44:24;7.00;1.00
5802;DHT22;2927;49.366;8.530;2024-02-26T07:46:49;7.10;1.00
5802;DHT22;2927;49.366;8.530;2024-02-26T07:49:15;7.10;1.00
5802;DHT22;2927;49.366;8.530;2024-02-26T07:51:40;7.10;99.90
5802;DHT22;2927;49.366;8.530;2024-02-26T07:54:06;7.20;99.90
5802;DHT22;2927;49.366;8.530;2024-02-26T07:56:31;7.20;99.90
5802;DHT22;2927;49.366;8.530;2024-02-26T07:58:57;7.20;1.00
5802;DHT22;2927;49.366;8.530;2024-02-26T08:01:23;7.30;99.90
5802;DHT22;2927;49.366;8.530;2024-02-26T08:03:48;7.30;99.90
5802;DHT22;2927;49.366;8.530;2024-02-26T08:06:14;7.30;99.90
5802;DHT22;2927;49.366;8.530;2024-02-26T08:08:39;7.40;99.90
5802;DHT22;2927;49.366;8.530;2024-02-26T08:11:05;7.40;99.90
5802;DHT22;2927;49.366;8.530;2024-02-26T08:13:30;7.40;99.90
5802;DHT22;2927;49.366;8.530;2024-02-26T08:15:56;7.50;99.90
5802;DHT22;2927;49.366;8.530;2024-02-26T08:18:22;7.50;1.00
5802;DHT22;2927;49.366;8.530;2024-02-26T08:20:47;7.60;1.00
5802;DHT22;2927;49.366;8.530;2024-02-26T08:23:14;7.70;1.00
5802;DHT22;2927;49.366;8.530;2024-02-26T08:25:39;7.80;1.00
5802;DHT22;2927;49.366;8.530;2024-02-26T08:28:05;7.90;1.00
5802;DHT22;2927;49.366;8.530;2024-02-26T08:30:31;8.00;12.40
5802;DHT22;2927;49.366;8.530;2024-02-26T08:32:56;8.10;99.90
5802;DHT22;2927;49.366;8.530;2024-02-26T08:35:22;8.20;99.90
5802;DHT22;2927;49.366;8.530;2024-02-26T08:37:48;8.30;99.90
5802;DHT22;2927;49.366;8.530;2024-02-26T08:40:14;8.30;1.00
5802;DHT22;2927;49.366;8.530;2024-02-26T08:42:40;8.30;1.00
5802;DHT22;2927;49.366;8.530;2024-02-26T08:45:07;8.30;1.00
5802;DHT22;2927;49.366;8.530;2024-02-26T08:47:32;8.30;1.00
5802;DHT22;2927;49.366;8.530;2024-02-26T08:49:58;8.30;1.00
5802;DHT22;2927;49.366;8.530;2024-02-26T08:52:24;8.40;1.00
5802;DHT22;2927;49.366;8.530;2024-02-26T08:54:50;8.40;1.00
5802;DHT22;2927;49.366;8.530;2024-02-26T08:57:15;8.40;1.00
5802;DHT22;2927;49.366;8.530;2024-02-26T08:59:41;8.50;1.00
5802;DHT22;2927;49.366;8.530;2024-02-26T09:02:07;8.50;99.90
5802;DHT22;2927;49.366;8.530;2024-02-26T09:04:34;8.60;99.90
5802;DHT22;2927;49.366;8.530;2024-02-26T09:07:01;8.60;1.00
5802;DHT22;2927;49.366;8.530;2024-02-26T09:09:27;8.70;1.00
5802;DHT22;2927;49.366;8.530;2024-02-26T09:11:52;8.70;1.00
5802;DHT22;2927;49.366;8.530;2024-02-26T09:14:20;8.70;99.90
5802;DHT22;2927;49.366;8.530;2024-02-26T09:16:45;8.70;32.60
5802;DHT22;2927;49.366;8.530;2024-02-26T09:19:13;8.70;1.00
5802;DHT22;2927;49.366;8.530;2024-02-26T09:21:45;8.70;99.90
5802;DHT22;2927;49.366;8.530;2024-02-26T09:24:14;8.70;1.00
5802;DHT22;2927;49.366;8.530;2024-02-26T09:26:40;8.80;99.90
5802;DHT22;2927;49.366;8.530;2024-02-26T09:29:05;8.90;1.00
5802;DHT22;2927;49.366;8.530;2024-02-26T09:31:31;8.80;1.00
5802;DHT22;2927;49.366;8.530;2024-02-26T09:33:57;8.90;99.90
5802;DHT22;2927;49.366;8.530;2024-02-26T09:36:22;9.00;99.90
5802;DHT22;2927;49.366;8.530;2024-02-26T09:38:48;9.10;99.40
5802;DHT22;2927;49.366;8.530;2024-02-26T09:41:17;9.20;99.90
5802;DHT22;2927;49.366;8.530;2024-02-26T09:43:44;9.20;1.00
5802;DHT22;2927;49.366;8.530;2024-02-26T09:46:11;9.30;71.00
5802;DHT22;2927;49.366;8.530;2024-02-26T09:48:37;9.30;1.00
5802;DHT22;2927;49.366;8.530;2024-02-26T09:51:03;9.30;1.00
5802;DHT22;2927;49.366;8.530;2024-02-26T09:53:29;9.30;1.00
5802;DHT22;2927;49.366;8.530;2024-02-26T09:55:57;9.30;1.00
5802;DHT22;2927;49.366;8.530;2024-02-26T09:58:24;9.30;1.00
5802;DHT22;2927;49.366;8.530;2024-02-26T10:00:53;9.50;99.90
5802;DHT22;2927;49.366;8.530;2024-02-26T10:03:34;9.90;99.90
5802;DHT22;2927;49.366;8.530;2024-02-26T10:06:04;10.50;1.00
5802;DHT22;2927;49.366;8.530;2024-02-26T10:08:31;10.80;99.90
5802;DHT22;2927;49.366;8.530;2024-02-26T10:10:57;11.10;43.80
5802;DHT22;2927;49.366;8.530;2024-02-26T10:13:23;11.20;1.00
5802;DHT22;2927;49.366;8.530;2024-02-26T10:15:48;11.30;1.00
5802;DHT22;2927;49.366;8.530;2024-02-26T10:18:14;11.10;1.00
5802;DHT22;2927;49.366;8.530;2024-02-26T10:20:40;10.90;1.00
5802;DHT22;2927;49.366;8.530;2024-02-26T10:23:06;10.90;1.00
5802;DHT22;2927;49.366;8.530;2024-02-26T10:25:31;11.00;1.00
5802;DHT22;2927;49.366;8.530;2024-02-26T10:28:01;11.10;1.00
5802;DHT22;2927;49.366;8.530;2024-02-26T10:30:30;11.10;1.00
5802;DHT22;2927;49.366;8.530;2024-02-26T10:32:56;11.20;1.00
5802;DHT22;2927;49.366;8.530;2024-02-26T10:35:22;11.30;1.00
5802;DHT22;2927;49.366;8.530;2024-02-26T10:37:48;11.30;1.00
5802;DHT22;2927;49.366;8.530;2024-02-26T10:40:15;11.30;1.00
5802;DHT22;2927;49.366;8.530;2024-02-26T10:42:41;11.30;1.00
5802;DHT22;2927;49.366;8.530;2024-02-26T10:45:07;11.30;1.00
5802;DHT22;2927;49.366;8.530;2024-02-26T10:47:37;11.40;1.00
5802;DHT22;2927;49.366;8.530;2024-02-26T10:50:04;11.40;1.00
5802;DHT22;2927;49.366;8.530;2024-02-26T10:52:34;11.30;1.00
5802;DHT22;2927;49.366;8.530;2024-02-26T10:55:02;11.50;1.00
5802;DHT22;2927;49.366;8.530;2024-02-26T10:57:31;11.70;1.00
5802;DHT22;2927;49.366;8.530;2024-02-26T11:00:00;11.80;1.00
5802;DHT22;2927;49.366;8.530;2024-02-26T11:02:26;12.00;1.00
5802;DHT22;2927;49.366;8.530;2024-02-26T11:04:53;12.10;1.00
5802;DHT22;2927;49.366;8.530;2024-02-26T11:07:19;12.00;99.90
5802;DHT22;2927;49.366;8.530;2024-02-26T11:09:46;12.00;99.90
5802;DHT22;2927;49.366;8.530;2024-02-26T11:12:18;11.80;99.90
5802;DHT22;2927;49.366;8.530;2024-02-26T11:14:46;11.90;99.90
5802;DHT22;2927;49.366;8.530;2024-02-26T11:17:13;11.90;99.90
5802;DHT22;2927;49.366;8.530;2024-02-26T11:19:41;12.00;99.90
5802;DHT22;2927;49.366;8.530;2024-02-26T11:22:08;12.00;99.90
5802;DHT22;2927;49.366;8.530;2024-02-26T11:24:33;12.10;99.90
5802;DHT22;2927;49.366;8.530;2024-02-26T11:27:02;12.00;99.90
5802;DHT22;2927;49.366;8.530;2024-02-26T11:29:34;12.00;99.90
5802;DHT22;2927;49.366;8.530;2024-02-26T11:32:03;12.00;99.90
5802;DHT22;2927;49.366;8.530;2024-02-26T11:34:28;11.90;99.90
5802;DHT22;2927;49.366;8.530;2024-02-26T11:36:55;12.00;99.90
5802;DHT22;2927;49.366;8.530;2024-02-26T11:39:22;12.20;99.90
5802;DHT22;2927;49.366;8.530;2024-02-26T11:41:48;12.30;99.90
5802;DHT22;2927;49.366;8.530;2024-02-26T11:44:13;12.20;99.90
5802;DHT22;2927;49.366;8.530;2024-02-26T11:46:42;12.10;99.90
5802;DHT22;2927;49.366;8.530;2024-02-26T11:51:54;12.20;99.90
5802;DHT22;2927;49.366;8.530;2024-02-26T11:57:38;12.60;99.90
5802;DHT22;2927;49.366;8.530;2024-02-26T12:02:50;13.00;99.90
5802;DHT22;2927;49.366;8.530;2024-02-26T12:05:23;12.90;99.90
5802;DHT22;2927;49.366;8.530;2024-02-26T12:07:53;12.90;99.90
5802;DHT22;2927;49.366;8.530;2024-02-26T12:12:45;12.60;99.90
5802;DHT22;2927;49.366;8.530;2024-02-26T12:15:10;12.70;99.90
5802;DHT22;2927;49.366;8.530;2024-02-26T12:17:37;12.70;99.90
5802;DHT22;2927;49.366;8.530;2024-02-26T12:20:13;13.00;99.90
5802;DHT22;2927;49.366;8.530;2024-02-26T12:22:45;13.10;99.90
5802;DHT22;2927;49.366;8.530;2024-02-26T12:25:13;13.20;99.90
5802;DHT22;2927;49.366;8.530;2024-02-26T12:27:38;13.20;99.90
5802;DHT22;2927;49.366;8.530;2024-02-26T12:30:04;13.40;99.90
5802;DHT22;2927;49.366;8.530;2024-02-26T12:32:32;13.30;99.90
5802;DHT22;2927;49.366;8.530;2024-02-26T12:34:58;13.40;99.90
5802;DHT22;2927;49.366;8.530;2024-02-26T12:37:27;13.50;99.90
5802;DHT22;2927;49.366;8.530;2024-02-26T12:39:52;13.70;99.90
5802;DHT22;2927;49.366;8.530;2024-02-26T12:42:18;13.80;99.90
5802;DHT22;2927;49.366;8.530;2024-02-26T12:44:46;13.90;99.90
5802;DHT22;2927;49.366;8.530;2024-02-26T12:47:11;13.80;99.90
5802;DHT22;2927;49.366;8.530;2024-02-26T12:49:42;13.70;99.90
5802;DHT22;2927;49.366;8.530;2024-02-26T12:52:09;13.70;99.90
5802;DHT22;2927;49.366;8.530;2024-02-26T12:54:36;13.70;99.90
5802;DHT22;2927;49.366;8.530;2024-02-26T12:57:04;13.80;99.90
5802;DHT22;2927;49.366;8.530;2024-02-26T12:59:32;13.80;99.90
5802;DHT22;2927;49.366;8.530;2024-02-26T13:01:59;13.80;99.90
5802;DHT22;2927;49.366;8.530;2024-02-26T13:04:26;13.70;99.90
5802;DHT22;2927;49.366;8.530;2024-02-26T13:06:53;13.80;99.90
5802;DHT22;2927;49.366;8.530;2024-02-26T13:09:18;13.70;99.90
5802;DHT22;2927;49.366;8.530;2024-02-26T13:11:44;13.60;99.90
5802;DHT22;2927;49.366;8.530;2024-02-26T13:14:23;13.70;99.90
5802;DHT22;2927;49.366;8.530;2024-02-26T13:16:55;13.60;99.90
5802;DHT22;2927;49.366;8.530;2024-02-26T13:19:21;13.70;99.90
5802;DHT22;2927;49.366;8.530;2024-02-26T13:21:47;13.60;99.90
5802;DHT22;2927;49.366;8.530;2024-02-26T13:24:13;13.50;94.10
5802;DHT22;2927;49.366;8.530;2024-02-26T13:26:39;13.40;97.00
5802;DHT22;2927;49.366;8.530;2024-02-26T13:29:05;13.50;99.90
5802;DHT22;2927;49.366;8.530;2024-02-26T13:31:30;13.50;91.10
5802;DHT22;2927;49.366;8.530;2024-02-26T13:33:56;13.50;94.70
5802;DHT22;2927;49.366;8.530;2024-02-26T13:36:24;13.50;83.70
5802;DHT22;2927;49.366;8.530;2024-02-26T13:38:54;13.50;72.30
5802;DHT22;2927;49.366;8.530;2024-02-26T13:41:23;13.60;78.20
5802;DHT22;2927;49.366;8.530;2024-02-26T13:43:50;13.60;62.40
5802;DHT22;2927;49.366;8.530;2024-02-26T13:46:16;13.70;57.30
5802;DHT22;2927;49.366;8.530;2024-02-26T13:48:42;13.80;51.40
5802;DHT22;2927;49.366;8.530;2024-02-26T13:51:08;13.90;54.70
5802;DHT22;2927;49.366;8.530;2024-02-26T13:53:33;13.90;57.60
5802;DHT22;2927;49.366;8.530;2024-02-26T13:55:59;13.80;65.20
5802;DHT22;2927;49.366;8.530;2024-02-26T13:58:27;13.70;70.90
5802;DHT22;2927;49.366;8.530;2024-02-26T14:00:55;13.60;58.80
5802;DHT22;2927;49.366;8.530;2024-02-26T14:03:21;13.60;50.30
5802;DHT22;2927;49.366;8.530;2024-02-26T14:05:47;13.60;50.00
5802;DHT22;2927;49.366;8.530;2024-02-26T14:08:13;13.70;48.60
5802;DHT22;2927;49.366;8.530;2024-02-26T14:10:38;13.80;56.00
5802;DHT22;2927;49.366;8.530;2024-02-26T14:13:04;13.90;47.00
5802;DHT22;2927;49.366;8.530;2024-02-26T14:15:30;13.90;43.70
5802;DHT22;2927;49.366;8.530;2024-02-26T14:17:56;13.80;44.40
5802;DHT22;2927;49.366;8.530;2024-02-26T14:20:23;13.70;51.70
5802;DHT22;2927;49.366;8.530;2024-02-26T14:22:50;13.70;63.90
5802;DHT22;2927;49.366;8.530;2024-02-26T14:25:17;13.70;66.90
5802;DHT22;2927;49.366;8.530;2024-02-26T14:27:43;13.80;57.20
5802;DHT22;2927;49.366;8.530;2024-02-26T14:30:09;13.90;56.80
5802;DHT22;2927;49.366;8.530;2024-02-26T14:32:34;13.90;50.60
5802;DHT22;2927;49.366;8.530;2024-02-26T14:35:02;14.00;46.10
5802;DHT22;2927;49.366;8.530;2024-02-26T14:37:28;14.10;40.70
5802;DHT22;2927;49.366;8.530;2024-02-26T14:39:54;14.20;39.20
5802;DHT22;2927;49.366;8.530;2024-02-26T14:42:19;14.30;31.50
5802;DHT22;2927;49.366;8.530;2024-02-26T14:44:45;14.20;25.40
5802;DHT22;2927;49.366;8.530;2024-02-26T14:47:13;14.30;25.90
5802;DHT22;2927;49.366;8.530;2024-02-26T14:49:39;14.40;19.00
5802;DHT22;2927;49.366;8.530;2024-02-26T14:52:04;14.30;16.50
5802;DHT22;2927;49.366;8.530;2024-02-26T14:54:30;14.30;16.00
5802;DHT22;2927;49.366;8.530;2024-02-26T14:57:03;14.20;10.30
5802;DHT22;2927;49.366;8.530;2024-02-26T14:59:29;14.10;11.40
5802;DHT22;2927;49.366;8.530;2024-02-26T15:01:56;14.20;13.90
5802;DHT22;2927;49.366;8.530;2024-02-26T15:04:21;14.10;10.10
5802;DHT22;2927;49.366;8.530;2024-02-26T15:06:47;13.90;7.70
5802;DHT22;2927;49.366;8.530;2024-02-26T15:09:13;13.80;13.60
5802;DHT22;2927;49.366;8.530;2024-02-26T15:11:39;13.70;10.50
5802;DHT22;2927;49.366;8.530;2024-02-26T15:14:05;13.70;12.90
5802;DHT22;2927;49.366;8.530;2024-02-26T15:16:31;13.70;14.30
5802;DHT22;2927;49.366;8.530;2024-02-26T15:18:56;13.70;17.80
5802;DHT22;2927;49.366;8.530;2024-02-26T15:21:22;13.70;17.20
5802;DHT22;2927;49.366;8.530;2024-02-26T15:23:47;13.70;14.70
5802;DHT22;2927;49.366;8.530;2024-02-26T15:26:17;13.70;12.10
5802;DHT22;2927;49.366;8.530;2024-02-26T15:28:42;13.60;15.90
5802;DHT22;2927;49.366;8.530;2024-02-26T15:31:08;13.60;15.90
5802;DHT22;2927;49.366;8.530;2024-02-26T15:33:33;13.70;13.50
5802;DHT22;2927;49.366;8.530;2024-02-26T15:35:59;13.70;16.50
5802;DHT22;2927;49.366;8.530;2024-02-26T15:38:24;13.70;18.40
5802;DHT22;2927;49.366;8.530;2024-02-26T15:40:50;13.70;25.10
5802;DHT22;2927;49.366;8.530;2024-02-26T15:43:16;13.70;25.30
5802;DHT22;2927;49.366;8.530;2024-02-26T15:45:41;13.60;32.80
5802;DHT22;2927;49.366;8.530;2024-02-26T15:48:07;13.60;26.90
5802;DHT22;2927;49.366;8.530;2024-02-26T15:50:33;13.50;26.40
5802;DHT22;2927;49.366;8.530;2024-02-26T15:52:58;13.60;25.20
5802;DHT22;2927;49.366;8.530;2024-02-26T15:55:24;13.50;24.30
5802;DHT22;2927;49.366;8.530;2024-02-26T15:57:50;13.50;22.80
5802;DHT22;2927;49.366;8.530;2024-02-26T16:00:16;13.50;22.80
5802;DHT22;2927;49.366;8.530;2024-02-26T16:02:41;13.60;24.50
5802;DHT22;2927;49.366;8.530;2024-02-26T16:05:08;13.60;33.00
5802;DHT22;2927;49.366;8.530;2024-02-26T16:07:39;13.60;42.80
5802;DHT22;2927;49.366;8.530;2024-02-26T16:10:07;13.60;38.00
5802;DHT22;2927;49.366;8.530;2024-02-26T16:12:41;13.60;49.60
5802;DHT22;2927;49.366;8.530;2024-02-26T16:15:09;13.50;46.60
5802;DHT22;2927;49.366;8.530;2024-02-26T16:17:37;13.40;44.50
5802;DHT22;2927;49.366;8.530;2024-02-26T16:20:06;13.30;57.10
5802;DHT22;2927;49.366;8.530;2024-02-26T16:22:35;13.30;86.70
5802;DHT22;2927;49.366;8.530;2024-02-26T16:25:02;13.20;85.30